sensor_id;sensor_type;location;lat;lon;timestamp;pressure;altitude;pressure_sealevel;temperature;humidity
47738;BME280;33502;47.182;27.506;2022-07-29T00:02:27;100392.34;;;20.60;98.87
47738;BME280;33502;47.182;27.506;2022-07-29T00:04:53;100387.81;;;20.61;98.40
47738;BME280;33502;47.182;27.506;2022-07-29T00:07:19;100389.53;;;20.62;98.43
47738;BME280;33502;47.182;27.506;2022-07-29T00:09:45;100390.38;;;20.62;98.73
47738;BME280;33502;47.182;27.506;2022-07-29T00:12:11;100389.25;;;20.65;98.86
47738;BME280;33502;47.182;27.506;2022-07-29T00:14:37;100399.50;;;20.71;98.74
47738;BME280;33502;47.182;27.506;2022-07-29T00:17:03;100390.22;;;20.75;98.25
47738;BME280;33502;47.182;27.506;2022-07-29T00:19:28;100390.94;;;20.77;97.92
47738;BME280;33502;47.182;27.506;2022-07-29T00:21:54;100388.25;;;20.77;97.89
47738;BME280;33502;47.182;27.506;2022-07-29T00:24:20;100392.75;;;20.77;100.00
47738;BME280;33502;47.182;27.506;2022-07-29T00:26:46;100400.22;;;20.73;99.84
47738;BME280;33502;47.182;27.506;2022-07-29T00:29:11;100395.59;;;20.75;99.31
47738;BME280;33502;47.182;27.506;2022-07-29T00:31:37;100392.50;;;20.80;98.80
47738;BME280;33502;47.182;27.506;2022-07-29T00:34:03;100391.38;;;20.82;99.21
47738;BME280;33502;47.182;27.506;2022-07-29T00:36:29;100397.63;;;20.83;99.23
47738;BME280;33502;47.182;27.506;2022-07-29T00:38:55;100391.38;;;20.82;100.00
47738;BME280;33502;47.182;27.506;2022-07-29T00:41:20;100395.06;;;20.81;100.00
47738;BME280;33502;47.182;27.506;2022-07-29T00:43:46;100391.66;;;20.79;100.00
47738;BME280;33502;47.182;27.506;2022-07-29T00:46:12;100388.97;;;20.79;100.00
47738;BME280;33502;47.182;27.506;2022-07-29T00:48:38;100388.09;;;20.79;100.00
47738;BME280;33502;47.182;27.506;2022-07-29T00:51:05;100390.66;;;20.80;100.00
47738;BME280;33502;47.182;27.506;2022-07-29T00:53:31;100396.03;;;20.80;100.00
47738;BME280;33502;47.182;27.506;2022-07-29T00:55:58;100394.34;;;20.79;100.00
47738;BME280;33502;47.182;27.506;2022-07-29T00:58:24;100397.03;;;20.79;100.00
47738;BME280;33502;47.182;27.506;2022-07-29T01:00:52;100391.50;;;20.81;100.00
47738;BME280;33502;47.182;27.506;2022-07-29T01:03:18;100382.34;;;20.83;100.00
47738;BME280;33502;47.182;27.506;2022-07-29T01:05:45;100382.94;;;20.87;99.08
47738;BME280;33502;47.182;27.506;2022-07-29T01:08:12;100390.72;;;20.90;98.27
47738;BME280;33502;47.182;27.506;2022-07-29T01:10:40;100396.56;;;20.95;98.55
47738;BME280;33502;47.182;27.506;2022-07-29T01:13:07;100383.84;;;20.97;97.84
47738;BME280;33502;47.182;27.506;2022-07-29T01:15:44;100395.31;;;20.99;97.81
47738;BME280;33502;47.182;27.506;2022-07-29T01:18:28;100388.25;;;20.98;98.04
47738;BME280;33502;47.182;27.506;2022-07-29T01:26:46;100399.69;;;20.90;99.29
47738;BME280;33502;47.182;27.506;2022-07-29T01:29:21;100399.91;;;20.87;99.36
47738;BME280;33502;47.182;27.506;2022-07-29T01:31:57;100394.78;;;20.84;98.96
47738;BME280;33502;47.182;27.506;2022-07-29T01:37:20;100395.06;;;20.81;98.47
47738;BME280;33502;47.182;27.506;2022-07-29T01:39:50;100392.63;;;20.78;98.59
47738;BME280;33502;47.182;27.506;2022-07-29T01:42:36;100393.63;;;20.77;99.03
47738;BME280;33502;47.182;27.506;2022-07-29T01:50:17;100390.22;;;20.75;98.10
47738;BME280;33502;47.182;27.506;2022-07-29T01:52:53;100390.94;;;20.77;97.74
47738;BME280;33502;47.182;27.506;2022-07-29T01:55:22;100397.03;;;20.79;97.20
47738;BME280;33502;47.182;27.506;2022-07-29T01:57:50;100396.88;;;20.81;97.32
47738;BME280;33502;47.182;27.506;2022-07-29T02:00:17;100396.75;;;20.82;97.20
47738;BME280;33502;47.182;27.506;2022-07-29T02:02:44;100395.66;;;20.85;96.55
47738;BME280;33502;47.182;27.506;2022-07-29T02:05:14;100396.25;;;20.88;96.27
47738;BME280;33502;47.182;27.506;2022-07-29T02:07:43;100402.22;;;20.92;96.24
47738;BME280;33502;47.182;27.506;2022-07-29T02:10:11;100400.41;;;20.92;95.96
47738;BME280;33502;47.182;27.506;2022-07-29T02:12:39;100398.53;;;20.93;96.11
47738;BME280;33502;47.182;27.506;2022-07-29T02:15:06;100399.41;;;20.93;96.10
47738;BME280;33502;47.182;27.506;2022-07-29T02:17:40;100391.31;;;20.93;95.89
47738;BME280;33502;47.182;27.506;2022-07-29T02:20:08;100394.00;;;20.93;96.42
47738;BME280;33502;47.182;27.506;2022-07-29T02:22:37;100395.00;;;20.92;96.83
47738;BME280;33502;47.182;27.506;2022-07-29T02:25:04;100394.28;;;20.90;97.03
47738;BME280;33502;47.182;27.506;2022-07-29T02:27:31;100401.66;;;20.88;96.79
47738;BME280;33502;47.182;27.506;2022-07-29T02:30:00;100402.63;;;20.87;98.04
47738;BME280;33502;47.182;27.506;2022-07-29T02:32:27;100408.84;;;20.88;97.18
47738;BME280;33502;47.182;27.506;2022-07-29T02:34:55;100407.88;;;20.89;96.98
47738;BME280;33502;47.182;27.506;2022-07-29T02:37:23;100423.75;;;20.92;97.80
47738;BME280;33502;47.182;27.506;2022-07-29T02:39:52;100427.41;;;20.70;100.00
47738;BME280;33502;47.182;27.506;2022-07-29T02:42:21;100434.66;;;20.47;100.00
47738;BME280;33502;47.182;27.506;2022-07-29T02:44:47;100428.47;;;20.35;100.00
47738;BME280;33502;47.182;27.506;2022-07-29T02:52:47;100431.44;;;20.09;100.00
47738;BME280;33502;47.182;27.506;2022-07-29T02:55:40;100433.25;;;19.64;100.00
47738;BME280;33502;47.182;27.506;2022-07-29T02:58:29;100430.50;;;19.07;100.00
47738;BME280;33502;47.182;27.506;2022-07-29T03:01:04;100440.50;;;18.81;100.00
47738;BME280;33502;47.182;27.506;2022-07-29T03:03:37;100433.16;;;18.59;100.00
47738;BME280;33502;47.182;27.506;2022-07-29T03:06:04;100444.47;;;18.51;100.00
47738;BME280;33502;47.182;27.506;2022-07-29T03:08:32;100446.66;;;18.46;100.00
47738;BME280;33502;47.182;27.506;2022-07-29T03:11:00;100446.13;;;18.41;100.00
47738;BME280;33502;47.182;27.506;2022-07-29T03:13:27;100442.13;;;18.47;100.00
47738;BME280;33502;47.182;27.506;2022-07-29T03:15:54;100442.88;;;18.49;100.00
47738;BME280;33502;47.182;27.506;2022-07-29T03:18:21;100434.38;;;18.55;100.00
47738;BME280;33502;47.182;27.506;2022-07-29T03:20:47;100433.41;;;18.56;100.00
47738;BME280;33502;47.182;27.506;2022-07-29T03:23:18;100432.84;;;18.64;100.00
47738;BME280;33502;47.182;27.506;2022-07-29T03:25:45;100431.84;;;18.65;100.00
47738;BME280;33502;47.182;27.506;2022-07-29T03:28:11;100439.91;;;18.65;100.00
47738;BME280;33502;47.182;27.506;2022-07-29T03:30:37;100434.31;;;18.68;100.00
47738;BME280;33502;47.182;27.506;2022-07-29T03:33:02;100435.78;;;18.72;100.00
47738;BME280;33502;47.182;27.506;2022-07-29T03:35:28;100429.22;;;18.76;100.00
47738;BME280;33502;47.182;27.506;2022-07-29T03:37:57;100433.94;;;18.85;100.00
47738;BME280;33502;47.182;27.506;2022-07-29T03:40:34;100437.88;;;18.92;100.00
47738;BME280;33502;47.182;27.506;2022-07-29T03:43:02;100442.03;;;18.96;100.00
47738;BME280;33502;47.182;27.506;2022-07-29T03:45:30;100436.19;;;19.03;100.00
47738;BME280;33502;47.182;27.506;2022-07-29T03:48:00;100434.75;;;19.10;100.00
47738;BME280;33502;47.182;27.506;2022-07-29T03:50:28;100432.59;;;19.15;100.00
47738;BME280;33502;47.182;27.506;2022-07-29T03:52:54;100431.25;;;19.21;100.00
47738;BME280;33502;47.182;27.506;2022-07-29T03:55:20;100430.41;;;19.31;100.00
47738;BME280;33502;47.182;27.506;2022-07-29T03:57:46;100433.22;;;19.41;100.00
47738;BME280;33502;47.182;27.506;2022-07-29T04:00:14;100438.59;;;19.52;100.00
47738;BME280;33502;47.182;27.506;2022-07-29T04:02:44;100443.03;;;19.65;100.00
47738;BME280;33502;47.182;27.506;2022-07-29T04:05:14;100444.28;;;19.72;100.00
47738;BME280;33502;47.182;27.506;2022-07-29T04:07:43;100457.97;;;19.80;100.00
47738;BME280;33502;47.182;27.506;2022-07-29T04:10:09;100459.44;;;19.84;100.00
47738;BME280;33502;47.182;27.506;2022-07-29T04:12:35;100456.84;;;19.94;100.00
47738;BME280;33502;47.182;27.506;2022-07-29T04:15:03;100459.03;;;20.00;100.00
47738;BME280;33502;47.182;27.506;2022-07-29T04:17:29;100459.94;;;20.01;100.00
47738;BME280;33502;47.182;27.506;2022-07-29T04:19:55;100450.97;;;20.00;100.00
47738;BME280;33502;47.182;27.506;2022-07-29T04:22:22;100448.06;;;20.03;100.00
47738;BME280;33502;47.182;27.506;2022-07-29T04:24:47;100447.94;;;20.16;100.00
47738;BME280;33502;47.182;27.506;2022-07-29T04:27:13;100445.09;;;20.29;100.00
47738;BME280;33502;47.182;27.506;2022-07-29T04:29:39;100449.47;;;20.41;100.00
47738;BME280;33502;47.182;27.506;2022-07-29T04:32:05;100447.72;;;20.51;100.00
47738;BME280;33502;47.182;27.506;2022-07-29T04:34:31;100442.34;;;20.63;100.00
47738;BME280;33502;47.182;27.506;2022-07-29T04:36:57;100448.19;;;20.68;100.00
47738;BME280;33502;47.182;27.506;2022-07-29T04:39:23;100447.56;;;20.76;100.00
47738;BME280;33502;47.182;27.506;2022-07-29T04:41:50;100444.34;;;20.82;100.00
47738;BME280;33502;47.182;27.506;2022-07-29T04:44:16;100454.00;;;20.84;100.00
47738;BME280;33502;47.182;27.506;2022-07-29T04:46:42;100451.47;;;20.83;100.00
47738;BME280;33502;47.182;27.506;2022-07-29T04:49:08;100456.56;;;20.86;100.00
47738;BME280;33502;47.182;27.506;2022-07-29T04:51:34;100468.94;;;20.88;100.00
47738;BME280;33502;47.182;27.506;2022-07-29T04:54:00;100466.97;;;20.90;100.00
47738;BME280;33502;47.182;27.506;2022-07-29T04:56:26;100470.38;;;20.92;100.00
47738;BME280;33502;47.182;27.506;2022-07-29T04:58:52;100465.19;;;21.01;100.00
47738;BME280;33502;47.182;27.506;2022-07-29T05:01:18;100469.13;;;20.97;100.00
47738;BME280;33502;47.182;27.506;2022-07-29T05:03:44;100465.84;;;20.93;100.00
47738;BME280;33502;47.182;27.506;2022-07-29T05:06:11;100460.56;;;20.91;100.00
47738;BME280;33502;47.182;27.506;2022-07-29T05:08:37;100462.53;;;20.89;100.00
47738;BME280;33502;47.182;27.506;2022-07-29T05:11:03;100464.50;;;20.87;100.00
47738;BME280;33502;47.182;27.506;2022-07-29T05:13:30;100476.25;;;20.86;100.00
47738;BME280;33502;47.182;27.506;2022-07-29T05:15:55;100480.41;;;20.90;100.00
47738;BME280;33502;47.182;27.506;2022-07-29T05:18:24;100476.47;;;20.95;100.00
47738;BME280;33502;47.182;27.506;2022-07-29T05:20:50;100479.38;;;21.03;100.00
47738;BME280;33502;47.182;27.506;2022-07-29T05:23:16;100477.03;;;21.09;100.00
47738;BME280;33502;47.182;27.506;2022-07-29T05:25:42;100483.25;;;21.10;100.00
47738;BME280;33502;47.182;27.506;2022-07-29T05:28:08;100479.50;;;21.01;100.00
47738;BME280;33502;47.182;27.506;2022-07-29T05:30:33;100477.94;;;20.99;100.00
47738;BME280;33502;47.182;27.506;2022-07-29T05:32:59;100474.47;;;21.08;100.00
47738;BME280;33502;47.182;27.506;2022-07-29T05:35:25;100474.66;;;21.16;100.00
47738;BME280;33502;47.182;27.506;2022-07-29T05:37:51;100478.66;;;21.22;100.00
47738;BME280;33502;47.182;27.506;2022-07-29T05:40:16;100473.88;;;21.25;100.00
47738;BME280;33502;47.182;27.506;2022-07-29T05:42:42;100476.38;;;21.17;100.00
47738;BME280;33502;47.182;27.506;2022-07-29T05:45:09;100477.94;;;21.20;100.00
47738;BME280;33502;47.182;27.506;2022-07-29T05:47:34;100484.47;;;21.17;100.00
47738;BME280;33502;47.182;27.506;2022-07-29T05:50:00;100482.84;;;21.15;100.00
47738;BME280;33502;47.182;27.506;2022-07-29T05:52:26;100473.94;;;21.14;100.00
47738;BME280;33502;47.182;27.506;2022-07-29T05:54:52;100481.41;;;21.10;100.00
47738;BME280;33502;47.182;27.506;2022-07-29T05:57:22;100482.06;;;21.03;100.00
47738;BME280;33502;47.182;27.506;2022-07-29T05:59:49;100484.88;;;21.01;100.00
47738;BME280;33502;47.182;27.506;2022-07-29T06:02:15;100492.63;;;20.95;100.00
47738;BME280;33502;47.182;27.506;2022-07-29T06:04:42;100496.13;;;20.74;100.00
47738;BME280;33502;47.182;27.506;2022-07-29T06:07:08;100498.19;;;20.59;100.00
47738;BME280;33502;47.182;27.506;2022-07-29T06:09:35;100496.16;;;20.40;100.00
47738;BME280;33502;47.182;27.506;2022-07-29T06:12:01;100509.75;;;20.27;100.00
47738;BME280;33502;47.182;27.506;2022-07-29T06:14:27;100501.09;;;20.12;100.00
47738;BME280;33502;47.182;27.506;2022-07-29T06:16:54;100501.81;;;20.03;100.00
47738;BME280;33502;47.182;27.506;2022-07-29T06:19:20;100495.31;;;19.94;100.00
47738;BME280;33502;47.182;27.506;2022-07-29T06:21:46;100498.88;;;19.84;100.00
47738;BME280;33502;47.182;27.506;2022-07-29T06:24:14;100503.47;;;19.70;100.00
47738;BME280;33502;47.182;27.506;2022-07-29T06:26:41;100505.53;;;19.55;100.00
47738;BME280;33502;47.182;27.506;2022-07-29T06:29:08;100510.25;;;19.41;100.00
47738;BME280;33502;47.182;27.506;2022-07-29T06:31:34;100518.09;;;19.20;100.00
47738;BME280;33502;47.182;27.506;2022-07-29T06:34:00;100518.16;;;18.95;100.00
47738;BME280;33502;47.182;27.506;2022-07-29T06:36:25;100511.44;;;18.77;100.00
47738;BME280;33502;47.182;27.506;2022-07-29T06:38:51;100512.22;;;18.66;100.00
47738;BME280;33502;47.182;27.506;2022-07-29T06:41:17;100517.69;;;18.65;100.00
47738;BME280;33502;47.182;27.506;2022-07-29T06:43:44;100512.56;;;18.62;100.00
47738;BME280;33502;47.182;27.506;2022-07-29T06:46:15;100507.19;;;18.62;100.00
47738;BME280;33502;47.182;27.506;2022-07-29T06:48:42;100512.56;;;18.62;100.00
47738;BME280;33502;47.182;27.506;2022-07-29T06:51:09;100514.50;;;18.59;100.00
47738;BME280;33502;47.182;27.506;2022-07-29T06:53:37;100514.50;;;18.59;100.00
47738;BME280;33502;47.182;27.506;2022-07-29T06:56:04;100511.56;;;18.63;100.00
47738;BME280;33502;47.182;27.506;2022-07-29T06:58:31;100516.84;;;18.64;100.00
47738;BME280;33502;47.182;27.506;2022-07-29T07:00:58;100515.78;;;18.67;100.00
47738;BME280;33502;47.182;27.506;2022-07-29T07:03:24;100522.63;;;18.71;100.00
47738;BME280;33502;47.182;27.506;2022-07-29T07:05:51;100529.47;;;18.75;100.00
47738;BME280;33502;47.182;27.506;2022-07-29T07:08:17;100533.63;;;18.79;100.00
47738;BME280;33502;47.182;27.506;2022-07-29T07:10:45;100524.09;;;18.75;100.00
47738;BME280;33502;47.182;27.506;2022-07-29T07:13:11;100527.41;;;18.78;100.00
47738;BME280;33502;47.182;27.506;2022-07-29T07:15:37;100533.56;;;18.81;100.00
47738;BME280;33502;47.182;27.506;2022-07-29T07:18:04;100538.03;;;18.80;100.00
47738;BME280;33502;47.182;27.506;2022-07-29T07:20:30;100538.66;;;18.84;100.00
47738;BME280;33502;47.182;27.506;2022-07-29T07:22:55;100537.59;;;18.86;100.00
47738;BME280;33502;47.182;27.506;2022-07-29T07:25:21;100538.47;;;18.87;100.00
47738;BME280;33502;47.182;27.506;2022-07-29T07:27:47;100542.34;;;18.83;100.00
47738;BME280;33502;47.182;27.506;2022-07-29T07:30:13;100552.09;;;18.84;100.00
47738;BME280;33502;47.182;27.506;2022-07-29T07:32:39;100546.19;;;18.78;100.00
47738;BME280;33502;47.182;27.506;2022-07-29T07:35:07;100545.88;;;18.70;100.00
47738;BME280;33502;47.182;27.506;2022-07-29T07:37:33;100551.25;;;18.70;100.00
47738;BME280;33502;47.182;27.506;2022-07-29T07:40:00;100544.41;;;18.66;100.00
47738;BME280;33502;47.182;27.506;2022-07-29T07:42:26;100557.41;;;18.59;100.00
47738;BME280;33502;47.182;27.506;2022-07-29T07:44:52;100562.03;;;18.57;100.00
47738;BME280;33502;47.182;27.506;2022-07-29T07:47:18;100553.09;;;18.57;100.00
47738;BME280;33502;47.182;27.506;2022-07-29T07:49:46;100556.66;;;18.57;100.00
47738;BME280;33502;47.182;27.506;2022-07-29T07:52:13;100557.16;;;18.63;100.00
47738;BME280;33502;47.182;27.506;2022-07-29T07:54:39;100566.84;;;18.65;100.00
47738;BME280;33502;47.182;27.506;2022-07-29T07:57:05;100571.00;;;18.69;100.00
47738;BME280;33502;47.182;27.506;2022-07-29T07:59:31;100569.81;;;18.73;100.00
47738;BME280;33502;47.182;27.506;2022-07-29T08:01:57;100568.91;;;18.86;100.00
47738;BME280;33502;47.182;27.506;2022-07-29T08:04:23;100577.91;;;18.97;100.00
47738;BME280;33502;47.182;27.506;2022-07-29T08:06:50;100569.94;;;19.09;100.00
47738;BME280;33502;47.182;27.506;2022-07-29T08:09:16;100578.41;;;19.27;100.00
47738;BME280;33502;47.182;27.506;2022-07-29T08:11:42;100575.19;;;19.46;100.00
47738;BME280;33502;47.182;27.506;2022-07-29T08:14:07;100577.06;;;19.56;100.00
47738;BME280;33502;47.182;27.506;2022-07-29T08:16:33;100571.13;;;19.64;100.00
47738;BME280;33502;47.182;27.506;2022-07-29T08:18:59;100572.44;;;19.70;100.00
47738;BME280;33502;47.182;27.506;2022-07-29T08:21:25;100588.16;;;19.76;100.00
47738;BME280;33502;47.182;27.506;2022-07-29T08:23:51;100585.59;;;19.86;100.00
47738;BME280;33502;47.182;27.506;2022-07-29T08:26:37;100599.06;;;19.97;100.00
47738;BME280;33502;47.182;27.506;2022-07-29T08:29:03;100601.03;;;20.06;100.00
47738;BME280;33502;47.182;27.506;2022-07-29T08:31:28;100597.38;;;20.19;100.00
47738;BME280;33502;47.182;27.506;2022-07-29T08:33:54;100602.03;;;20.28;100.00
47738;BME280;33502;47.182;27.506;2022-07-29T08:36:21;100610.22;;;20.38;100.00
47738;BME280;33502;47.182;27.506;2022-07-29T08:38:47;100609.50;;;20.47;100.00
47738;BME280;33502;47.182;27.506;2022-07-29T08:41:14;100610.34;;;20.59;100.00
47738;BME280;33502;47.182;27.506;2022-07-29T08:43:40;100610.72;;;20.65;100.00
47738;BME280;33502;47.182;27.506;2022-07-29T08:46:07;100616.97;;;20.66;100.00
47738;BME280;33502;47.182;27.506;2022-07-29T08:48:33;100611.22;;;20.70;100.00
47738;BME280;33502;47.182;27.506;2022-07-29T08:51:00;100602.53;;;20.78;100.00
47738;BME280;33502;47.182;27.506;2022-07-29T08:53:28;100608.28;;;20.85;100.00
47738;BME280;33502;47.182;27.506;2022-07-29T08:55:55;100604.34;;;20.89;100.00
47738;BME280;33502;47.182;27.506;2022-07-29T08:58:21;100608.63;;;20.91;100.00
47738;BME280;33502;47.182;27.506;2022-07-29T09:00:51;100610.44;;;21.02;100.00
47738;BME280;33502;47.182;27.506;2022-07-29T09:03:19;100612.50;;;21.10;100.00
47738;BME280;33502;47.182;27.506;2022-07-29T09:05:46;100607.44;;;21.17;100.00
47738;BME280;33502;47.182;27.506;2022-07-29T09:08:13;100612.47;;;21.21;100.00
47738;BME280;33502;47.182;27.506;2022-07-29T09:10:40;100613.44;;;21.20;100.00
47738;BME280;33502;47.182;27.506;2022-07-29T09:13:06;100611.09;;;21.27;100.00
47738;BME280;33502;47.182;27.506;2022-07-29T09:15:32;100613.78;;;21.27;100.00
47738;BME280;33502;47.182;27.506;2022-07-29T09:17:57;100612.34;;;21.23;100.00
47738;BME280;33502;47.182;27.506;2022-07-29T09:20:27;100613.91;;;21.25;100.00
47738;BME280;33502;47.182;27.506;2022-07-29T09:23:14;100621.34;;;21.33;100.00
47738;BME280;33502;47.182;27.506;2022-07-29T09:25:40;100613.59;;;21.40;100.00
47738;BME280;33502;47.182;27.506;2022-07-29T09:28:12;100618.38;;;21.36;100.00
47738;BME280;33502;47.182;27.506;2022-07-29T09:30:57;100617.72;;;21.23;100.00
47738;BME280;33502;47.182;27.506;2022-07-29T09:33:32;100617.59;;;21.13;100.00
47738;BME280;33502;47.182;27.506;2022-07-29T09:36:03;100617.91;;;20.99;100.00
47738;BME280;33502;47.182;27.506;2022-07-29T09:38:30;100614.84;;;20.81;100.00
47738;BME280;33502;47.182;27.506;2022-07-29T09:40:57;100616.88;;;20.67;100.00
47738;BME280;33502;47.182;27.506;2022-07-29T09:43:23;58809.00;;;-144.94;100.00
47738;BME280;33502;47.182;27.506;2022-07-29T09:45:49;58809.00;;;-144.94;100.00
47738;BME280;33502;47.182;27.506;2022-07-29T09:48:22;58809.00;;;-144.94;100.00
47738;BME280;33502;47.182;27.506;2022-07-29T09:50:49;58809.00;;;-144.94;100.00
47738;BME280;33502;47.182;27.506;2022-07-29T09:55:59;58809.00;;;-144.94;100.00
47738;BME280;33502;47.182;27.506;2022-07-29T09:58:25;58809.00;;;-144.94;100.00
47738;BME280;33502;47.182;27.506;2022-07-29T10:00:52;58809.00;;;-144.94;100.00
47738;BME280;33502;47.182;27.506;2022-07-29T10:03:19;58809.00;;;-144.94;100.00
47738;BME280;33502;47.182;27.506;2022-07-29T10:05:46;58809.00;;;-144.94;100.00
47738;BME280;33502;47.182;27.506;2022-07-29T10:08:28;58809.00;;;-144.94;100.00
47738;BME280;33502;47.182;27.506;2022-07-29T10:11:12;58809.00;;;-144.94;100.00
47738;BME280;33502;47.182;27.506;2022-07-29T10:13:38;58809.00;;;-144.94;100.00
47738;BME280;33502;47.182;27.506;2022-07-29T10:16:06;58809.00;;;-144.94;100.00
47738;BME280;33502;47.182;27.506;2022-07-29T10:18:32;58809.00;;;-144.94;100.00
47738;BME280;33502;47.182;27.506;2022-07-29T10:20:58;58809.00;;;-144.94;100.00
47738;BME280;33502;47.182;27.506;2022-07-29T10:23:30;58809.00;;;-144.94;100.00
47738;BME280;33502;47.182;27.506;2022-07-29T10:25:57;58809.00;;;-144.94;100.00
47738;BME280;33502;47.182;27.506;2022-07-29T10:28:23;58809.00;;;-144.94;100.00
47738;BME280;33502;47.182;27.506;2022-07-29T10:30:51;58809.00;;;-144.94;100.00
47738;BME280;33502;47.182;27.506;2022-07-29T10:33:31;58809.00;;;-144.94;100.00
47738;BME280;33502;47.182;27.506;2022-07-29T10:38:43;58809.00;;;-144.94;100.00
47738;BME280;33502;47.182;27.506;2022-07-29T10:44:05;58809.00;;;-144.94;100.00
47738;BME280;33502;47.182;27.506;2022-07-29T10:46:37;58809.00;;;-144.94;100.00
47738;BME280;33502;47.182;27.506;2022-07-29T10:51:51;58809.00;;;-144.94;100.00
47738;BME280;33502;47.182;27.506;2022-07-29T10:54:18;58809.00;;;-144.94;100.00
47738;BME280;33502;47.182;27.506;2022-07-29T10:56:44;58809.00;;;-144.94;100.00
47738;BME280;33502;47.182;27.506;2022-07-29T11:01:46;58809.00;;;-144.94;100.00
47738;BME280;33502;47.182;27.506;2022-07-29T11:04:12;58809.00;;;-144.94;100.00
47738;BME280;33502;47.182;27.506;2022-07-29T11:09:26;58809.00;;;-144.94;100.00
47738;BME280;33502;47.182;27.506;2022-07-29T11:11:52;58809.00;;;-144.94;100.00
47738;BME280;33502;47.182;27.506;2022-07-29T11:14:18;58809.00;;;-144.94;100.00
47738;BME280;33502;47.182;27.506;2022-07-29T11:17:05;58809.00;;;-144.94;100.00
47738;BME280;33502;47.182;27.506;2022-07-29T11:19:33;58809.00;;;-144.94;100.00
47738;BME280;33502;47.182;27.506;2022-07-29T11:21:59;58809.00;;;-144.94;100.00
47738;BME280;33502;47.182;27.506;2022-07-29T11:24:29;58809.00;;;-144.94;100.00
47738;BME280;33502;47.182;27.506;2022-07-29T11:27:19;58809.00;;;-144.94;100.00
47738;BME280;33502;47.182;27.506;2022-07-29T11:29:54;58809.00;;;-144.94;100.00
47738;BME280;33502;47.182;27.506;2022-07-29T11:32:21;58809.00;;;-144.94;100.00
47738;BME280;33502;47.182;27.506;2022-07-29T11:34:48;58809.00;;;-144.94;100.00
47738;BME280;33502;47.182;27.506;2022-07-29T11:37:16;58809.00;;;-144.94;100.00
47738;BME280;33502;47.182;27.506;2022-07-29T11:39:46;58809.00;;;-144.94;100.00
47738;BME280;33502;47.182;27.506;2022-07-29T11:47:24;58809.00;;;-144.94;100.00
47738;BME280;33502;47.182;27.506;2022-07-29T11:49:50;58809.00;;;-144.94;100.00
47738;BME280;33502;47.182;27.506;2022-07-29T11:52:18;58809.00;;;-144.94;100.00
47738;BME280;33502;47.182;27.506;2022-07-29T11:54:44;58809.00;;;-144.94;100.00
47738;BME280;33502;47.182;27.506;2022-07-29T11:57:11;58809.00;;;-144.94;100.00
47738;BME280;33502;47.182;27.506;2022-07-29T11:59:45;58809.00;;;-144.94;100.00
47738;BME280;33502;47.182;27.506;2022-07-29T12:02:12;58809.00;;;-144.94;100.00
47738;BME280;33502;47.182;27.506;2022-07-29T12:04:51;58809.00;;;-144.94;100.00
47738;BME280;33502;47.182;27.506;2022-07-29T12:07:18;58809.00;;;-144.94;100.00
47738;BME280;33502;47.182;27.506;2022-07-29T12:09:52;58809.00;;;-144.94;100.00
47738;BME280;33502;47.182;27.506;2022-07-29T12:12:19;58809.00;;;-144.94;100.00
47738;BME280;33502;47.182;27.506;2022-07-29T12:14:45;58809.00;;;-144.94;100.00
47738;BME280;33502;47.182;27.506;2022-07-29T12:17:47;58809.00;;;-144.94;100.00
47738;BME280;33502;47.182;27.506;2022-07-29T12:20:13;58809.00;;;-144.94;100.00
47738;BME280;33502;47.182;27.506;2022-07-29T12:22:47;58809.00;;;-144.94;100.00
47738;BME280;33502;47.182;27.506;2022-07-29T12:25:14;58809.00;;;-144.94;100.00
47738;BME280;33502;47.182;27.506;2022-07-29T12:27:42;58809.00;;;-144.94;100.00
47738;BME280;33502;47.182;27.506;2022-07-29T12:30:15;58809.00;;;-144.94;100.00
47738;BME280;33502;47.182;27.506;2022-07-29T12:32:47;58809.00;;;-144.94;100.00
47738;BME280;33502;47.182;27.506;2022-07-29T12:35:18;58809.00;;;-144.94;100.00
47738;BME280;33502;47.182;27.506;2022-07-29T12:37:46;58809.00;;;-144.94;100.00
47738;BME280;33502;47.182;27.506;2022-07-29T12:40:15;58809.00;;;-144.94;100.00
47738;BME280;33502;47.182;27.506;2022-07-29T12:45:40;58809.00;;;-144.94;100.00
47738;BME280;33502;47.182;27.506;2022-07-29T12:48:06;58809.00;;;-144.94;100.00
47738;BME280;33502;47.182;27.506;2022-07-29T12:50:35;58809.00;;;-144.94;100.00
47738;BME280;33502;47.182;27.506;2022-07-29T12:53:19;58809.00;;;-144.94;100.00
47738;BME280;33502;47.182;27.506;2022-07-29T12:55:47;58809.00;;;-144.94;100.00
47738;BME280;33502;47.182;27.506;2022-07-29T12:58:41;58809.00;;;-144.94;100.00
47738;BME280;33502;47.182;27.506;2022-07-29T13:01:13;58809.00;;;-144.94;100.00
47738;BME280;33502;47.182;27.506;2022-07-29T13:03:55;58809.00;;;-144.94;100.00
47738;BME280;33502;47.182;27.506;2022-07-29T13:06:31;58809.00;;;-144.94;100.00
47738;BME280;33502;47.182;27.506;2022-07-29T13:09:17;58809.00;;;-144.94;100.00
47738;BME280;33502;47.182;27.506;2022-07-29T13:14:13;58809.00;;;-144.94;100.00
47738;BME280;33502;47.182;27.506;2022-07-29T13:17:05;58809.00;;;-144.94;100.00
47738;BME280;33502;47.182;27.506;2022-07-29T13:19:38;58809.00;;;-144.94;100.00
47738;BME280;33502;47.182;27.506;2022-07-29T13:22:09;58809.00;;;-144.94;100.00